Time;durP1;ratioP1;P1;durP2;ratioP2;P2;SDS_P1;SDS_P2;PMS_P1;PMS_P2;Temp;Humidity;BMP_temperature;BMP_pressure;BME280_temperature;BME280_humidity;BME280_pressure;Samples;Min_cycle;Max_cycle;Signal;HPM_P1;HPM_P2
2022/06/25 00:00:27;;;;;;;3.23;2.93;;;20.20;99.90;;;;;;4956398;29;20182;-75
2022/06/25 00:02:52;;;;;;;3.50;3.20;;;20.20;99.90;;;;;;4956015;29;20182;-76
2022/06/25 00:05:32;;;;;;;5.70;3.30;;;20.20;99.90;;;;;;4955238;28;20261;-76
2022/06/25 00:07:58;;;;;;;3.50;3.00;;;20.20;99.90;;;;;;4956135;29;20548;-78
2022/06/25 00:10:24;;;;;;;2.97;2.67;;;20.20;99.90;;;;;;4956090;29;20441;-76
2022/06/25 00:12:50;;;;;;;3.00;2.80;;;20.20;99.90;;;;;;4955993;29;20453;-77
2022/06/25 00:15:16;;;;;;;4.57;2.77;;;20.10;99.90;;;;;;4956834;29;20431;-79
2022/06/25 00:17:42;;;;;;;2.70;2.50;;;20.20;99.90;;;;;;4956653;29;20621;-78
2022/06/25 00:20:08;;;;;;;4.03;2.87;;;20.20;99.90;;;;;;4956098;29;20446;-77
2022/06/25 00:22:34;;;;;;;3.27;3.00;;;20.20;99.90;;;;;;4956378;29;20430;-77
2022/06/25 00:24:59;;;;;;;2.47;2.27;;;20.20;99.90;;;;;;4956381;29;20449;-78
2022/06/25 00:27:25;;;;;;;3.47;2.57;;;20.10;99.90;;;;;;4956631;29;20182;-78
2022/06/25 00:29:51;;;;;;;2.73;2.53;;;20.10;99.90;;;;;;4955706;29;20187;-78
2022/06/25 00:32:17;;;;;;;3.30;3.03;;;20.20;99.90;;;;;;4956624;29;20238;-78
2022/06/25 00:34:43;;;;;;;5.47;3.40;;;20.20;99.90;;;;;;4956494;29;20653;-75
2022/06/25 00:37:09;;;;;;;3.57;2.70;;;20.30;99.90;;;;;;4956584;29;20469;-78
2022/06/25 00:39:36;;;;;;;4.07;2.40;;;20.30;99.90;;;;;;4956076;29;20449;-83
2022/06/25 00:42:09;;;;;;;2.90;2.60;;;20.40;99.90;;;;;;4956060;29;20426;-83
2022/06/25 00:44:34;;;;;;;4.73;2.87;;;20.40;99.90;;;;;;4954420;29;20509;-82
2022/06/25 00:47:01;;;;;;;2.70;2.50;;;20.40;99.90;;;;;;4955865;29;20817;-81
2022/06/25 00:49:26;;;;;;;3.90;2.80;;;20.40;99.90;;;;;;4956071;29;20175;-81
2022/06/25 00:51:53;;;;;;;5.70;2.40;;;20.40;99.90;;;;;;4956327;29;20430;-82
2022/06/25 00:54:20;;;;;;;5.70;2.40;;;20.50;99.90;;;;;;4956188;29;20179;-82
2022/06/25 00:56:51;;;;;;;5.97;3.57;;;20.50;99.90;;;;;;4956244;29;20444;-83
2022/06/25 00:59:26;;;;;;;2.63;2.43;;;20.50;99.90;;;;;;4956135;29;20477;-83
2022/06/25 01:01:51;;;;;;;2.50;2.30;;;20.50;99.90;;;;;;4956157;29;20428;-83
2022/06/25 01:04:17;;;;;;;2.77;2.57;;;20.50;99.90;;;;;;4956263;29;20430;-83
2022/06/25 01:06:43;;;;;;;5.03;2.67;;;20.40;99.90;;;;;;4956047;29;20566;-82
2022/06/25 01:09:09;;;;;;;3.50;2.23;;;20.40;99.90;;;;;;4955936;29;20179;-83
2022/06/25 01:11:34;;;;;;;4.50;2.83;;;20.40;99.90;;;;;;4955972;29;20282;-82
2022/06/25 01:14:09;;;;;;;2.80;2.60;;;20.40;99.90;;;;;;4955909;29;20531;-82
2022/06/25 01:16:35;;;;;;;3.20;2.50;;;20.40;99.90;;;;;;4955661;28;20178;-84
2022/06/25 01:19:06;;;;;;;6.63;2.80;;;20.40;99.90;;;;;;4955764;29;20478;-85
2022/06/25 01:21:32;;;;;;;2.27;2.07;;;20.40;99.90;;;;;;4956014;29;20422;-85
2022/06/25 01:23:57;;;;;;;2.70;2.50;;;20.30;99.90;;;;;;4955763;29;20937;-83
2022/06/25 04:30:29;;;;;;;6.53;2.90;;;19.80;99.90;;;;;;5942029;23;20444;-78
2022/06/25 04:32:54;;;;;;;3.73;2.80;;;19.80;99.90;;;;;;4956815;29;20438;-78
2022/06/25 04:35:20;;;;;;;5.50;3.03;;;19.80;99.90;;;;;;4956976;29;20668;-80
2022/06/25 04:37:45;;;;;;;6.23;2.60;;;19.80;99.90;;;;;;4956732;29;20277;-80
2022/06/25 04:40:11;;;;;;;3.67;3.00;;;19.80;99.90;;;;;;4957328;29;20709;-81
2022/06/25 04:42:37;;;;;;;4.67;3.20;;;19.90;99.90;;;;;;4957220;29;20586;-80
2022/06/25 04:45:03;;;;;;;3.27;2.90;;;19.90;99.90;;;;;;4956867;29;20548;-81
2022/06/25 04:47:28;;;;;;;6.73;3.43;;;19.90;99.90;;;;;;4956719;29;20197;-79
2022/06/25 04:49:54;;;;;;;4.10;2.80;;;20.00;99.90;;;;;;4956181;28;20240;-79
2022/06/25 04:52:19;;;;;;;3.40;2.90;;;20.10;99.90;;;;;;4956737;29;20178;-81
2022/06/25 04:54:45;;;;;;;2.33;2.13;;;20.10;99.90;;;;;;4939397;29;20182;-76
2022/06/25 04:57:10;;;;;;;4.40;2.50;;;20.20;99.90;;;;;;4956597;29;20190;-79
2022/06/25 04:59:36;;;;;;;2.83;2.63;;;20.20;99.90;;;;;;4955916;29;20265;-79
2022/06/25 05:02:02;;;;;;;4.50;2.97;;;20.30;99.90;;;;;;4956103;29;20182;-81
2022/06/25 05:04:27;;;;;;;4.03;2.90;;;20.30;99.90;;;;;;4955783;29;20189;-80
2022/06/25 05:06:53;;;;;;;3.37;2.53;;;20.30;99.90;;;;;;4955437;29;20209;-81
2022/06/25 05:09:18;;;;;;;2.73;2.53;;;20.40;99.90;;;;;;4955617;29;20217;-78
2022/06/25 05:11:44;;;;;;;6.80;2.80;;;20.40;99.90;;;;;;4955624;29;20185;-79
2022/06/25 05:14:09;;;;;;;3.73;2.60;;;20.40;99.90;;;;;;4956110;29;20638;-80
2022/06/25 05:16:35;;;;;;;4.37;2.80;;;20.60;99.90;;;;;;4955992;29;20594;-78
2022/06/25 05:19:01;;;;;;;6.00;3.10;;;20.70;99.90;;;;;;4955804;29;20262;-80
2022/06/25 05:21:27;;;;;;;8.80;2.57;;;20.70;99.90;;;;;;4956006;29;20175;-76
2022/06/25 05:23:52;;;;;;;2.53;2.33;;;20.70;99.90;;;;;;4938206;29;20182;-78
2022/06/25 05:26:18;;;;;;;2.83;2.60;;;20.70;99.90;;;;;;4955591;29;20182;-76
2022/06/25 05:28:43;;;;;;;2.70;2.50;;;20.90;99.90;;;;;;4955319;29;20407;-77
2022/06/25 05:31:09;;;;;;;5.13;2.73;;;21.00;99.90;;;;;;4952872;29;20271;-75
2022/06/25 05:33:35;;;;;;;3.00;2.70;;;21.00;99.90;;;;;;4955218;29;20182;-76
2022/06/25 05:36:00;;;;;;;2.77;2.57;;;21.10;99.90;;;;;;4938668;29;20266;-76
2022/06/25 05:38:26;;;;;;;4.90;2.63;;;21.20;99.90;;;;;;4955180;29;20268;-76
2022/06/25 05:40:51;;;;;;;3.10;2.80;;;21.20;99.90;;;;;;4955061;29;20189;-76
2022/06/25 05:43:17;;;;;;;3.13;2.50;;;21.30;99.90;;;;;;4938145;29;20181;-77
2022/06/25 05:45:42;;;;;;;2.80;2.60;;;21.40;99.90;;;;;;4954966;29;20313;-76
2022/06/25 05:48:08;;;;;;;2.97;2.40;;;21.40;99.90;;;;;;4955129;29;20309;-91
2022/06/25 05:50:33;;;;;;;5.70;3.13;;;21.60;99.90;;;;;;4938098;29;20542;-83
2022/06/25 05:52:59;;;;;;;5.13;3.33;;;21.60;99.90;;;;;;4955548;29;20662;-86
2022/06/25 05:55:25;;;;;;;2.40;2.20;;;21.70;99.90;;;;;;4955143;29;20178;-86
2022/06/25 05:57:51;;;;;;;4.77;2.37;;;21.70;99.90;;;;;;4952125;29;20209;-81
2022/06/25 06:00:17;;;;;;;3.03;2.80;;;21.80;99.90;;;;;;4955112;29;20265;-81
2022/06/25 06:02:43;;;;;;;4.57;3.07;;;21.90;99.90;;;;;;4954224;28;20559;-83
2022/06/25 06:05:09;;;;;;;6.20;3.33;;;22.00;99.90;;;;;;4937864;29;20446;-85
2022/06/25 06:07:34;;;;;;;3.40;3.10;;;22.10;99.90;;;;;;4955289;29;20197;-83
2022/06/25 06:10:00;;;;;;;6.50;3.20;;;22.10;99.90;;;;;;4955235;29;20178;-78
2022/06/25 06:12:27;;;;;;;4.53;2.77;;;22.20;99.90;;;;;;4954094;29;20186;-90
2022/06/25 06:14:52;;;;;;;5.63;3.20;;;22.40;99.90;;;;;;4933935;29;20438;-85
2022/06/25 06:17:18;;;;;;;3.57;2.60;;;22.40;99.90;;;;;;4953983;29;20484;-77
2022/06/25 06:19:43;;;;;;;5.10;2.90;;;22.50;99.90;;;;;;4953736;29;20178;-76
2022/06/25 06:22:09;;;;;;;3.13;2.67;;;22.60;99.90;;;;;;4951592;29;20178;-90
2022/06/25 06:24:34;;;;;;;5.43;3.70;;;22.70;99.90;;;;;;4936318;29;20190;-84
2022/06/25 06:27:01;;;;;;;4.00;3.00;;;22.80;99.90;;;;;;4954353;29;20610;-86
2022/06/25 06:29:27;;;;;;;4.63;3.23;;;22.80;99.90;;;;;;4936708;29;20186;-86
2022/06/25 06:31:53;;;;;;;3.83;2.90;;;22.80;99.90;;;;;;4936455;29;20873;-79
2022/06/25 06:34:19;;;;;;;4.37;3.10;;;22.90;99.90;;;;;;4954125;29;20426;-79
2022/06/25 06:36:44;;;;;;;4.60;3.17;;;23.00;99.90;;;;;;4953928;29;20178;-79
2022/06/25 06:39:10;;;;;;;4.33;2.60;;;23.00;99.90;;;;;;4953718;29;20214;-75
2022/06/25 06:41:37;;;;;;;5.20;2.93;;;23.00;99.90;;;;;;4953762;29;20217;-78
2022/06/25 06:44:03;;;;;;;5.00;2.70;;;23.10;99.90;;;;;;4953687;29;20801;-83
2022/06/25 06:46:28;;;;;;;2.93;2.60;;;23.10;99.90;;;;;;4953400;29;20434;-81
2022/06/25 06:48:54;;;;;;;8.30;3.80;;;23.20;99.90;;;;;;4953484;29;20725;-88
2022/06/25 06:51:19;;;;;;;5.80;2.73;;;23.30;99.90;;;;;;4953713;29;20584;-79
2022/06/25 06:53:45;;;;;;;4.20;3.10;;;23.30;99.90;;;;;;4953471;29;20186;-85
2022/06/25 06:56:10;;;;;;;4.03;2.90;;;23.40;99.90;;;;;;4950738;29;20179;-83
2022/06/25 06:58:37;;;;;;;3.83;3.33;;;23.30;99.90;;;;;;4953281;29;20614;-83
2022/06/25 07:01:02;;;;;;;4.40;2.73;;;23.40;99.90;;;;;;4953022;29;20175;-80
2022/06/25 07:03:28;;;;;;;11.83;2.83;;;23.50;99.90;;;;;;4936199;29;20799;-84
2022/06/25 07:05:54;;;;;;;3.67;2.20;;;23.60;99.90;;;;;;4953524;29;20711;-79
2022/06/25 07:08:20;;;;;;;4.40;2.60;;;23.60;99.90;;;;;;4953547;29;20225;-76
2022/06/25 07:10:46;;;;;;;4.90;3.40;;;23.70;99.90;;;;;;4953873;29;20166;-77
2022/06/25 07:13:11;;;;;;;3.73;3.27;;;23.70;99.90;;;;;;4953970;28;20175;-77
2022/06/25 07:15:37;;;;;;;3.90;2.60;;;23.60;99.90;;;;;;4939962;29;20237;-77
2022/06/25 07:18:02;;;;;;;3.37;3.00;;;23.60;99.90;;;;;;4956997;29;20209;-76
2022/06/25 07:20:28;;;;;;;6.30;2.73;;;23.50;99.90;;;;;;4956866;29;20186;-76
2022/06/25 07:22:53;;;;;;;3.63;2.97;;;23.40;99.90;;;;;;4957052;29;20186;-76
2022/06/25 07:25:19;;;;;;;9.93;2.87;;;23.40;99.90;;;;;;4957077;29;20581;-77
2022/06/25 07:27:46;;;;;;;3.50;3.20;;;23.50;99.90;;;;;;4956816;29;20569;-76
2022/06/25 07:30:13;;;;;;;3.10;2.63;;;23.50;99.90;;;;;;4956791;29;20257;-77
2022/06/25 07:32:38;;;;;;;8.07;3.00;;;23.50;99.90;;;;;;4956758;29;20470;-78
2022/06/25 07:35:04;;;;;;;6.97;2.20;;;23.60;99.90;;;;;;4957088;29;20424;-77
2022/06/25 07:37:30;;;;;;;8.33;3.47;;;23.60;99.90;;;;;;4955753;29;20182;-81
2022/06/25 07:39:55;;;;;;;5.20;2.67;;;23.50;99.90;;;;;;4956059;29;20438;-75
2022/06/25 07:42:21;;;;;;;5.83;3.00;;;23.50;99.90;;;;;;4956364;29;20171;-81
2022/06/25 07:44:46;;;;;;;3.23;2.83;;;23.50;99.90;;;;;;4956206;29;20182;-78
2022/06/25 07:47:12;;;;;;;4.60;3.13;;;23.50;99.90;;;;;;4956123;29;20241;-77
2022/06/25 07:52:22;;;;;;;4.73;3.13;;;23.60;99.90;;;;;;4955980;29;20194;-85
2022/06/25 07:54:47;;;;;;;4.40;2.50;;;23.60;99.90;;;;;;4956182;29;20803;-77
2022/06/25 07:57:13;;;;;;;8.30;3.43;;;23.60;99.90;;;;;;4956389;29;20190;-73
2022/06/25 07:59:38;;;;;;;4.53;2.40;;;23.80;99.90;;;;;;4955285;29;20451;-78
2022/06/25 08:02:05;;;;;;;5.50;3.37;;;23.80;99.90;;;;;;4956029;29;20178;-74
2022/06/25 08:04:30;;;;;;;4.00;2.30;;;23.80;99.90;;;;;;4956070;29;20233;-74
2022/06/25 08:06:56;;;;;;;3.93;2.60;;;23.80;99.90;;;;;;4956293;29;20898;-74
2022/06/25 08:09:22;;;;;;;4.50;2.63;;;23.90;99.90;;;;;;4950639;29;20258;-75
2022/06/25 08:11:48;;;;;;;4.40;2.83;;;24.00;99.90;;;;;;4933394;29;20480;-73
2022/06/25 08:14:14;;;;;;;3.40;2.60;;;24.00;99.90;;;;;;4943883;28;20179;-75
2022/06/25 08:16:39;;;;;;;3.63;2.50;;;24.10;99.90;;;;;;4955639;29;20534;-75
2022/06/25 08:19:05;;;;;;;5.60;3.40;;;24.20;99.90;;;;;;4937379;29;20225;-75
2022/06/25 08:21:30;;;;;;;9.43;2.90;;;24.20;99.90;;;;;;4955011;29;20179;-74
2022/06/25 08:23:56;;;;;;;3.10;2.90;;;24.20;99.90;;;;;;4951423;29;21233;-76
2022/06/25 08:26:22;;;;;;;5.63;2.60;;;24.40;99.90;;;;;;4954816;28;20213;-74
2022/06/25 08:28:47;;;;;;;3.67;2.93;;;24.50;99.90;;;;;;4955408;29;20664;-75
2022/06/25 08:31:13;;;;;;;5.07;2.33;;;24.60;99.90;;;;;;4955258;29;20222;-74
2022/06/25 08:33:39;;;;;;;4.40;2.10;;;24.60;99.90;;;;;;4952808;29;20178;-76
2022/06/25 08:36:05;;;;;;;3.60;2.63;;;24.60;99.90;;;;;;4955017;29;20536;-76
2022/06/25 08:38:31;;;;;;;8.53;2.77;;;24.70;99.90;;;;;;4955158;29;20206;-76
2022/06/25 08:40:58;;;;;;;6.17;2.40;;;24.80;99.90;;;;;;4955258;29;20178;-76
2022/06/25 08:43:24;;;;;;;4.80;2.37;;;24.90;99.90;;;;;;4955278;29;20497;-76
2022/06/25 08:45:50;;;;;;;5.63;1.97;;;24.90;99.90;;;;;;4955069;29;21036;-77
2022/06/25 08:48:20;;;;;;;7.33;2.60;;;24.90;99.90;;;;;;4955220;29;20198;-76
2022/06/25 08:50:48;;;;;;;5.53;2.20;;;25.00;99.90;;;;;;4955191;29;20438;-75
2022/06/25 08:53:14;;;;;;;2.60;1.97;;;24.90;99.90;;;;;;4955172;29;20426;-75
2022/06/25 08:55:40;;;;;;;5.07;2.13;;;24.90;99.90;;;;;;4954981;29;20945;-75
2022/06/25 08:58:07;;;;;;;6.43;2.23;;;24.80;99.90;;;;;;4954864;29;20476;-74
2022/06/25 09:00:35;;;;;;;2.47;2.00;;;24.80;99.90;;;;;;4955190;29;20194;-76
2022/06/25 09:03:01;;;;;;;3.80;1.90;;;24.80;99.90;;;;;;4954781;29;20489;-76
2022/06/25 09:05:35;;;;;;;2.70;2.50;;;24.70;99.90;;;;;;4954727;29;20984;-77
2022/06/25 09:08:05;;;;;;;3.53;2.43;;;24.70;99.90;;;;;;4952404;29;20975;-75
2022/06/25 09:10:31;;;;;;;7.10;2.40;;;24.70;99.90;;;;;;4954648;29;20431;-75
2022/06/25 09:13:08;;;;;;;3.33;2.00;;;24.60;99.90;;;;;;4954507;29;20437;-77
2022/06/25 09:15:34;;;;;;;2.43;2.13;;;24.60;99.90;;;;;;4955096;29;21002;-74
2022/06/25 09:18:12;;;;;;;3.73;2.03;;;24.60;99.90;;;;;;4954855;29;20466;-74
2022/06/25 09:21:07;;;;;;;6.57;1.93;;;24.70;99.90;;;;;;4954287;29;20438;-77
2022/06/25 09:23:35;;;;;;;4.37;1.93;;;24.70;99.90;;;;;;4931563;29;20953;-76
2022/06/25 09:26:05;;;;;;;4.13;1.80;;;24.70;99.90;;;;;;4954879;29;20862;-75
2022/06/25 09:28:33;;;;;;;5.43;2.10;;;24.60;99.90;;;;;;4954762;29;20418;-76
2022/06/25 09:30:59;;;;;;;2.20;2.00;;;24.60;99.90;;;;;;4954622;29;20474;-76
2022/06/25 09:33:24;;;;;;;5.30;2.27;;;24.60;99.90;;;;;;4954604;29;20437;-75
2022/06/25 09:35:51;;;;;;;2.90;2.17;;;24.60;99.90;;;;;;4954008;28;20792;-74
2022/06/25 09:38:17;;;;;;;4.30;2.03;;;24.70;99.90;;;;;;4954328;29;20210;-74
2022/06/25 09:41:00;;;;;;;5.13;1.80;;;24.70;99.90;;;;;;4954572;29;20973;-74
2022/06/25 09:43:28;;;;;;;2.77;2.10;;;24.80;99.90;;;;;;4954492;29;20178;-75
2022/06/25 09:45:55;;;;;;;5.00;2.40;;;24.90;99.90;;;;;;4954387;29;20426;-75
2022/06/25 09:48:26;;;;;;;4.50;1.47;;;25.00;99.90;;;;;;4954363;29;20418;-77
2022/06/25 09:51:13;;;;;;;3.80;2.00;;;25.00;99.90;;;;;;4937357;29;20450;-74
2022/06/25 09:53:59;;;;;;;2.53;1.63;;;25.10;99.90;;;;;;4953711;29;20426;-74
2022/06/25 09:56:27;;;;;;;6.80;2.50;;;25.10;99.90;;;;;;4954611;29;20449;-77
2022/06/25 09:58:54;;;;;;;4.63;2.53;;;25.20;99.90;;;;;;4954882;29;20478;-81
2022/06/25 10:01:23;;;;;;;2.30;1.73;;;25.20;99.90;;;;;;4955168;29;20430;-82
2022/06/25 10:03:49;;;;;;;5.80;2.00;;;25.20;99.90;;;;;;4954622;29;20433;-85
2022/06/25 10:06:25;;;;;;;3.27;2.00;;;25.10;99.90;;;;;;4947156;29;20446;-80
2022/06/25 10:08:56;;;;;;;3.90;2.07;;;25.00;99.90;;;;;;4944479;29;20430;-80
2022/06/25 10:11:28;;;;;;;6.00;3.13;;;24.90;99.90;;;;;;4949582;29;20424;-77
2022/06/25 10:13:54;;;;;;;3.30;1.73;;;24.80;99.90;;;;;;4948932;28;20426;-85
2022/06/25 10:16:21;;;;;;;4.30;2.03;;;24.90;99.90;;;;;;4955015;29;20837;-80
2022/06/25 10:18:49;;;;;;;5.77;2.20;;;25.00;99.90;;;;;;4938723;28;20470;-79
2022/06/25 10:21:15;;;;;;;4.00;2.10;;;25.10;99.90;;;;;;4944747;29;20525;-73
2022/06/25 10:23:41;;;;;;;2.17;1.93;;;25.20;99.90;;;;;;4953319;29;20430;-76
2022/06/25 10:26:09;;;;;;;2.47;1.57;;;25.30;99.90;;;;;;4931453;29;20438;-72
2022/06/25 10:28:35;;;;;;;2.30;1.90;;;25.50;99.90;;;;;;4935793;29;21001;-73
2022/06/25 10:31:06;;;;;;;6.20;1.90;;;25.50;99.80;;;;;;4947178;29;20458;-75
2022/06/25 10:33:55;;;;;;;2.60;1.67;;;25.60;99.20;;;;;;4952485;29;21122;-75
2022/06/25 10:36:42;;;;;;;3.30;1.60;;;25.70;99.60;;;;;;4953627;29;20545;-74
2022/06/25 10:39:25;;;;;;;2.57;1.50;;;25.60;98.90;;;;;;4953113;29;20510;-74
2022/06/25 10:45:15;;;;;;;5.30;1.90;;;25.80;96.80;;;;;;4954537;29;20429;-78
2022/06/25 10:47:48;;;;;;;3.37;1.80;;;25.90;98.50;;;;;;4954743;28;20473;-84
2022/06/25 10:50:23;;;;;;;1.90;1.50;;;25.90;97.40;;;;;;4958560;29;20461;-82
2022/06/25 10:53:05;;;;;;;5.10;1.80;;;26.00;96.50;;;;;;4958635;29;20444;-81
2022/06/25 10:55:31;;;;;;;3.40;1.33;;;26.00;92.00;;;;;;4958577;29;20425;-85
2022/06/25 10:58:14;;;;;;;3.20;1.90;;;26.00;92.90;;;;;;4958471;29;20731;-80
2022/06/25 11:00:47;;;;;;;4.10;1.60;;;26.10;93.30;;;;;;4958514;29;20174;-83
2022/06/25 11:03:13;;;;;;;1.70;1.60;;;26.10;92.60;;;;;;4958349;29;20533;-82
2022/06/25 11:05:43;;;;;;;3.30;2.00;;;26.00;93.60;;;;;;4958787;29;20449;-94
2022/06/25 11:08:09;;;;;;;4.40;1.57;;;26.10;92.20;;;;;;4959715;29;20771;-81
2022/06/25 11:10:36;;;;;;;3.37;1.80;;;26.20;91.00;;;;;;4958427;29;20520;-77
2022/06/25 11:13:03;;;;;;;2.43;2.07;;;26.30;91.90;;;;;;4959028;29;20186;-95
2022/06/25 11:15:39;;;;;;;4.40;1.70;;;26.20;92.40;;;;;;4959532;29;20821;-87
2022/06/25 11:18:14;;;;;;;4.03;1.60;;;26.30;93.50;;;;;;4958803;29;20465;-84
2022/06/25 11:20:41;;;;;;;2.57;2.00;;;26.30;92.20;;;;;;4956136;29;20437;-82
2022/06/25 11:23:11;;;;;;;3.33;1.50;;;26.30;91.80;;;;;;4957784;29;20495;-86
2022/06/25 11:28:48;;;;;;;2.00;1.50;;;26.30;90.50;;;;;;4957610;29;20508;-82
2022/06/25 11:31:17;;;;;;;7.07;2.10;;;26.40;90.50;;;;;;4958669;29;20460;-89
2022/06/25 11:33:43;;;;;;;2.33;1.77;;;26.60;89.30;;;;;;4942291;29;20768;-82
2022/06/25 11:36:10;;;;;;;2.40;1.60;;;26.70;88.60;;;;;;4956967;29;20430;-78
2022/06/25 11:38:36;;;;;;;2.90;1.40;;;26.70;87.80;;;;;;4957395;29;20765;-87
2022/06/25 11:41:03;;;;;;;3.37;1.77;;;26.70;86.60;;;;;;4958742;29;20457;-80
2022/06/25 11:43:29;;;;;;;3.20;1.80;;;26.70;86.10;;;;;;4958109;29;20434;-79
2022/06/25 11:45:56;;;;;;;1.97;1.60;;;26.90;86.20;;;;;;4958001;29;20784;-82
2022/06/25 11:48:26;;;;;;;1.63;1.40;;;26.90;84.60;;;;;;4957779;29;20423;-79
2022/06/25 11:50:58;;;;;;;3.97;2.03;;;26.90;84.80;;;;;;4957921;29;20779;-78
2022/06/25 11:53:24;;;;;;;3.40;1.80;;;26.90;85.10;;;;;;4957506;29;20433;-83
2022/06/25 11:56:01;;;;;;;2.97;1.70;;;26.90;85.40;;;;;;4957524;29;20422;-81
2022/06/25 11:58:29;;;;;;;3.80;1.83;;;26.80;83.20;;;;;;4957654;29;20221;-83
2022/06/25 12:00:56;;;;;;;6.13;1.83;;;26.80;84.50;;;;;;4956351;28;20426;-82
2022/06/25 12:03:27;;;;;;;6.87;2.03;;;26.80;86.90;;;;;;4957451;29;20438;-84
2022/06/25 12:05:54;;;;;;;3.30;2.07;;;26.70;89.10;;;;;;4957370;29;20422;-78
2022/06/25 12:08:22;;;;;;;2.90;1.60;;;26.70;87.60;;;;;;4958181;29;20430;-90
2022/06/25 12:10:48;;;;;;;2.33;1.90;;;26.60;88.30;;;;;;4957510;29;20497;-86
2022/06/25 12:13:17;;;;;;;4.20;2.33;;;26.40;90.20;;;;;;4957397;29;20842;-84
2022/06/25 12:15:43;;;;;;;2.73;1.70;;;26.40;90.10;;;;;;4957045;29;20498;-81
2022/06/25 12:18:08;;;;;;;2.90;1.53;;;26.50;91.00;;;;;;4956722;29;20549;-81
2022/06/25 12:20:35;;;;;;;2.23;2.03;;;26.50;91.00;;;;;;4956993;29;20184;-82
2022/06/25 12:23:01;;;;;;;1.23;1.13;;;26.60;90.60;;;;;;4956933;29;20177;-82
2022/06/25 12:25:31;;;;;;;2.93;1.93;;;26.60;90.20;;;;;;4957107;29;20517;-81
2022/06/25 12:27:57;;;;;;;4.53;2.42;;;26.50;90.00;;;;;;4956135;29;20462;-84
2022/06/25 12:30:28;;;;;;;3.20;2.50;;;26.50;89.90;;;;;;4956841;29;20174;-78
2022/06/25 12:32:56;;;;;;;5.30;2.13;;;26.70;90.50;;;;;;4956657;29;20466;-80
2022/06/25 12:35:25;;;;;;;2.60;1.90;;;26.70;88.10;;;;;;4939551;29;20948;-90
2022/06/25 12:38:10;;;;;;;6.03;2.40;;;26.90;87.70;;;;;;4956833;29;20557;-80
2022/06/25 12:40:50;;;;;;;3.10;1.97;;;26.90;89.60;;;;;;4956726;29;20430;-79
2022/06/25 12:43:17;;;;;;;2.47;1.57;;;26.90;88.00;;;;;;4956571;29;20508;-80
2022/06/25 12:45:45;;;;;;;5.43;1.80;;;27.00;85.80;;;;;;4956362;29;20438;-81
2022/06/25 12:48:12;;;;;;;3.57;1.73;;;27.10;86.80;;;;;;4956325;29;20429;-79
2022/06/25 12:50:40;;;;;;;6.30;1.80;;;27.10;86.80;;;;;;4956096;29;20929;-80
2022/06/25 12:53:10;;;;;;;2.30;1.50;;;27.20;83.90;;;;;;4956321;29;20789;-80
2022/06/25 12:55:36;;;;;;;3.50;2.90;;;27.00;84.20;;;;;;4956699;29;20445;-80
2022/06/25 12:58:04;;;;;;;4.83;2.57;;;27.00;83.70;;;;;;4955922;29;20525;-80
2022/06/25 13:00:32;;;;;;;3.80;2.60;;;26.90;86.30;;;;;;4956181;29;20446;-80
2022/06/25 13:02:57;;;;;;;3.20;2.20;;;26.90;85.10;;;;;;4956070;29;20845;-83
2022/06/25 13:05:23;;;;;;;3.37;2.27;;;26.90;86.20;;;;;;4956258;29;20445;-79
2022/06/25 13:07:49;;;;;;;6.70;2.10;;;26.90;86.40;;;;;;4955466;29;20435;-86
2022/06/25 13:10:16;;;;;;;2.53;1.97;;;26.80;85.70;;;;;;4938878;29;20524;-79
2022/06/25 13:12:43;;;;;;;2.67;2.10;;;26.70;87.80;;;;;;4955570;28;20186;-86
2022/06/25 13:15:10;;;;;;;3.90;2.33;;;26.70;86.50;;;;;;4956770;29;20429;-86
2022/06/25 13:17:36;;;;;;;3.17;2.40;;;26.60;88.30;;;;;;4958210;29;20444;-89
2022/06/25 13:20:03;;;;;;;6.70;2.77;;;26.70;87.80;;;;;;4958273;29;20530;-85
2022/06/25 13:22:29;;;;;;;5.03;1.80;;;26.70;86.00;;;;;;4962303;29;20426;-91
2022/06/25 13:24:55;;;;;;;5.77;3.23;;;26.70;86.10;;;;;;4967788;29;20454;-87
2022/06/25 13:27:20;;;;;;;3.77;1.90;;;26.50;86.20;;;;;;4963293;29;20186;-86
2022/06/25 13:29:46;;;;;;;4.33;2.20;;;26.50;87.70;;;;;;4961370;29;20182;-87
2022/06/25 13:32:16;;;;;;;2.17;1.73;;;26.40;88.40;;;;;;4965795;29;20673;-92
2022/06/25 13:34:48;;;;;;;3.50;1.83;;;26.30;87.90;;;;;;4960327;29;20182;-88
2022/06/25 13:37:14;;;;;;;2.40;2.00;;;26.30;88.00;;;;;;4958321;29;20452;-89
2022/06/25 13:39:40;;;;;;;1.93;1.77;;;26.40;87.40;;;;;;4955969;29;20477;-87
2022/06/25 13:42:06;;;;;;;4.40;2.03;;;26.30;88.20;;;;;;4956217;29;20452;-92
2022/06/25 13:44:34;;;;;;;2.73;2.07;;;26.30;87.90;;;;;;4958434;29;20524;-92
2022/06/25 13:47:01;;;;;;;4.90;2.13;;;26.30;87.00;;;;;;4957135;29;20266;-88
2022/06/25 13:49:27;;;;;;;8.17;2.57;;;26.20;88.70;;;;;;4956122;29;20518;-89
2022/06/25 13:51:53;;;;;;;3.10;2.00;;;26.20;90.00;;;;;;4954113;29;20509;-84
2022/06/25 13:54:18;;;;;;;2.30;2.07;;;26.30;90.00;;;;;;4953596;29;20182;-90
2022/06/25 13:56:44;;;;;;;3.33;2.37;;;26.30;90.50;;;;;;4953350;29;20238;-84
2022/06/25 13:59:10;;;;;;;3.13;1.90;;;26.30;91.70;;;;;;4953973;29;20280;-88
2022/06/25 14:01:35;;;;;;;6.07;2.20;;;26.30;90.50;;;;;;4953202;29;20170;-83
2022/06/25 14:04:01;;;;;;;3.40;2.10;;;26.30;90.30;;;;;;4954635;29;20237;-94
2022/06/25 14:06:27;;;;;;;7.03;2.27;;;26.40;90.10;;;;;;4955420;29;20697;-89
2022/06/25 14:08:54;;;;;;;3.17;2.10;;;26.50;90.30;;;;;;4953688;29;20225;-92
2022/06/25 14:11:20;;;;;;;3.30;2.03;;;26.50;90.80;;;;;;4953795;29;20436;-90
2022/06/25 14:13:47;;;;;;;3.00;1.90;;;26.50;91.10;;;;;;4954173;29;20438;-84
2022/06/25 14:16:14;;;;;;;4.03;2.03;;;26.40;92.00;;;;;;4953401;29;20441;-89
2022/06/25 14:18:39;;;;;;;3.20;1.93;;;26.50;91.70;;;;;;4953129;29;20481;-86
2022/06/25 14:21:05;;;;;;;3.70;1.77;;;26.50;91.60;;;;;;4952789;29;20527;-81
2022/06/25 14:23:32;;;;;;;3.67;2.40;;;26.60;90.90;;;;;;4952075;28;20561;-82
2022/06/25 14:25:57;;;;;;;2.53;1.53;;;26.70;90.50;;;;;;4950674;29;20182;-85
2022/06/25 14:28:23;;;;;;;3.00;2.17;;;26.80;88.90;;;;;;4936731;29;20438;-89
2022/06/25 14:30:49;;;;;;;4.37;2.30;;;26.90;89.00;;;;;;4954139;29;20458;-86
2022/06/25 14:33:15;;;;;;;1.80;1.67;;;26.90;88.70;;;;;;4954306;29;20290;-83
2022/06/25 14:42:20;;;;;;;3.90;2.10;;;26.90;90.40;;;;;;4953886;29;20178;-82
2022/06/25 14:43:55;;;;;;;4.23;2.73;;;26.90;90.30;;;;;;4955009;29;20919;-82
2022/06/25 14:46:20;;;;;;;3.00;1.80;;;26.90;90.00;;;;;;4955153;29;20517;-82
2022/06/25 14:48:46;;;;;;;3.80;1.80;;;26.80;90.00;;;;;;4956175;29;20541;-87
2022/06/25 14:51:11;;;;;;;2.43;1.83;;;27.00;86.40;;;;;;4955453;29;20190;-83
2022/06/25 14:53:37;;;;;;;3.23;1.60;;;27.00;87.00;;;;;;4955178;29;20178;-82
2022/06/25 14:56:02;;;;;;;4.13;1.90;;;27.00;85.50;;;;;;4955020;29;20278;-85
2022/06/25 14:58:28;;;;;;;2.77;1.80;;;27.20;88.50;;;;;;4955182;29;20576;-86
2022/06/25 15:00:54;;;;;;;2.33;1.90;;;27.30;87.40;;;;;;4954772;29;20185;-82
2022/06/25 15:03:19;;;;;;;4.13;2.37;;;27.30;82.70;;;;;;4955957;29;20178;-87
2022/06/25 15:05:46;;;;;;;1.43;1.33;;;27.10;85.60;;;;;;4957461;29;20182;-89
2022/06/25 15:08:12;;;;;;;2.90;2.00;;;27.00;87.50;;;;;;4955465;29;20190;-78
2022/06/25 15:10:38;;;;;;;1.83;1.40;;;26.90;83.40;;;;;;4954545;29;20937;-78
2022/06/25 15:13:04;;;;;;;2.80;1.90;;;27.00;81.90;;;;;;4954424;29;20422;-80
2022/06/25 15:15:29;;;;;;;2.27;2.10;;;27.00;83.30;;;;;;4954472;29;20181;-79
2022/06/25 15:17:55;;;;;;;1.87;1.77;;;26.90;82.50;;;;;;4954197;29;20213;-78
2022/06/25 15:20:20;;;;;;;2.00;1.63;;;26.70;84.20;;;;;;4954346;29;20183;-77
2022/06/25 15:22:46;;;;;;;2.10;1.83;;;26.70;84.00;;;;;;4953198;29;20426;-75
2022/06/25 15:25:11;;;;;;;2.37;2.00;;;26.90;84.80;;;;;;4954359;29;20430;-82
2022/06/25 15:27:37;;;;;;;2.70;1.87;;;27.00;85.60;;;;;;4954382;29;20171;-79
2022/06/25 15:30:04;;;;;;;1.90;1.80;;;27.10;83.70;;;;;;4953814;29;20233;-86
2022/06/25 15:32:29;;;;;;;2.37;1.80;;;27.10;84.90;;;;;;4953366;29;20237;-73
2022/06/25 15:34:55;;;;;;;1.80;1.50;;;27.20;83.50;;;;;;4955092;28;20438;-77
2022/06/25 15:37:22;;;;;;;4.40;2.13;;;27.10;83.50;;;;;;4957067;29;20178;-78
2022/06/25 15:39:47;;;;;;;5.57;2.10;;;27.00;85.10;;;;;;4957135;29;20221;-75
2022/06/25 15:42:13;;;;;;;3.33;1.73;;;27.00;85.70;;;;;;4956832;29;20438;-78
2022/06/25 15:44:38;;;;;;;1.90;1.73;;;27.00;85.50;;;;;;4956303;29;20182;-82
2022/06/25 15:47:04;;;;;;;5.30;2.13;;;27.20;85.70;;;;;;4957193;29;20174;-85
2022/06/25 15:49:30;;;;;;;2.83;1.83;;;27.20;85.60;;;;;;4957281;29;20713;-78
2022/06/25 15:51:55;;;;;;;2.33;1.97;;;27.40;84.10;;;;;;4957558;29;20261;-84
2022/06/25 15:54:21;;;;;;;6.60;2.80;;;27.40;84.20;;;;;;4956999;29;20185;-83
2022/06/25 15:56:47;;;;;;;4.40;2.20;;;27.50;82.40;;;;;;4956845;29;20634;-88
2022/06/25 15:59:28;;;;;;;2.17;1.93;;;27.60;83.30;;;;;;4954668;29;20528;-81
2022/06/25 16:01:55;;;;;;;1.83;1.73;;;27.70;87.00;;;;;;4952780;28;20190;-88
2022/06/25 16:04:21;;;;;;;3.87;1.73;;;27.70;82.70;;;;;;4940380;29;20442;-88
2022/06/25 16:06:47;;;;;;;2.70;1.60;;;27.70;82.30;;;;;;4937520;29;20522;-79